createdAt,value
2017-07-20T00:00:25.680Z,10.23
2017-07-20T00:02:53.246Z,10.97
2017-07-20T00:05:20.770Z,10.77
2017-07-20T00:07:49.097Z,11.80
2017-07-20T00:10:16.627Z,10.60
2017-07-20T00:12:44.942Z,8.43
2017-07-20T00:15:12.474Z,11.13
2017-07-20T00:17:40.031Z,12.70
2017-07-20T00:20:07.570Z,10.13
2017-07-20T00:22:35.892Z,12.13
2017-07-20T00:25:03.416Z,12.30
2017-07-20T00:27:30.996Z,7.83
2017-07-20T00:29:58.519Z,9.67
2017-07-20T00:32:26.083Z,13.40
2017-07-20T00:34:53.614Z,9.30
2017-07-20T00:37:21.187Z,11.70
2017-07-20T00:39:48.713Z,9.90
2017-07-20T00:42:16.234Z,10.17
2017-07-20T00:44:46.170Z,9.93
2017-07-20T00:47:13.695Z,13.03
2017-07-20T00:49:41.247Z,13.20
2017-07-20T00:52:08.765Z,9.03
2017-07-20T00:54:36.326Z,17.03
2017-07-20T00:57:03.851Z,10.50
2017-07-20T00:59:32.170Z,11.53
2017-07-20T01:01:59.699Z,8.60
2017-07-20T01:04:27.251Z,10.63
2017-07-20T01:06:55.539Z,12.83
2017-07-20T01:09:23.099Z,11.43
2017-07-20T01:11:50.635Z,16.90
2017-07-20T01:14:18.955Z,8.77
2017-07-20T01:16:46.485Z,14.27
2017-07-20T01:19:14.038Z,12.03
2017-07-20T01:21:42.337Z,11.37
2017-07-20T01:24:09.890Z,10.33
2017-07-20T01:26:37.420Z,12.00
2017-07-20T01:29:05.739Z,11.13
2017-07-20T01:31:33.273Z,14.23
2017-07-20T01:34:01.591Z,14.30
2017-07-20T01:36:29.121Z,15.73
2017-07-20T01:38:56.670Z,14.17
2017-07-20T01:41:24.198Z,12.13
2017-07-20T01:43:51.750Z,10.77
2017-07-20T01:46:19.302Z,14.50
2017-07-20T01:48:46.836Z,18.07
2017-07-20T01:51:14.391Z,20.27
2017-07-20T01:53:41.919Z,9.97
2017-07-20T01:56:10.246Z,11.53
2017-07-20T01:58:37.785Z,13.40
2017-07-20T02:01:05.329Z,14.80
2017-07-20T02:03:32.864Z,17.03
2017-07-20T02:06:00.414Z,28.80
2017-07-20T02:08:27.942Z,15.97
2017-07-20T02:10:55.499Z,13.00
2017-07-20T02:13:23.033Z,9.10
2017-07-20T02:15:50.589Z,11.47
2017-07-20T02:18:18.124Z,15.23
2017-07-20T02:20:46.448Z,11.50
2017-07-20T02:23:13.967Z,12.60
2017-07-20T02:25:42.290Z,10.60
2017-07-20T02:28:09.819Z,7.43
2017-07-20T02:30:37.371Z,8.40
2017-07-20T02:33:05.662Z,12.93
2017-07-20T02:35:33.206Z,7.90
2017-07-20T02:38:01.507Z,12.03
2017-07-20T02:40:29.063Z,11.50
2017-07-20T02:42:56.587Z,13.77
2017-07-20T02:45:24.873Z,11.00
2017-07-20T02:47:53.196Z,10.87
2017-07-20T02:50:20.741Z,12.10
2017-07-20T02:52:48.301Z,11.77
2017-07-20T02:55:15.835Z,14.23
2017-07-20T02:57:44.155Z,14.90
2017-07-20T03:00:11.683Z,13.30
2017-07-20T03:02:39.230Z,8.43
2017-07-20T03:05:07.522Z,9.97
2017-07-20T03:07:35.067Z,9.77
2017-07-20T03:10:03.358Z,11.50
2017-07-20T03:12:30.907Z,12.33
2017-07-20T03:14:59.204Z,14.30
2017-07-20T03:17:26.780Z,11.43
2017-07-20T03:19:54.301Z,13.93
2017-07-20T03:22:33.851Z,13.87
2017-07-20T03:25:02.146Z,11.47
2017-07-20T03:27:29.701Z,10.93
2017-07-20T03:29:57.226Z,10.57
2017-07-20T03:32:24.789Z,11.80
2017-07-20T03:34:53.087Z,12.97
2017-07-20T03:37:20.639Z,12.20
2017-07-20T03:39:48.934Z,12.17
2017-07-20T03:42:16.488Z,15.00
2017-07-20T03:44:44.015Z,18.17
2017-07-20T03:47:11.559Z,9.97
2017-07-20T03:49:39.088Z,13.87
2017-07-20T03:52:06.650Z,10.77
2017-07-20T03:54:34.174Z,12.97
2017-07-20T03:57:02.462Z,15.10
2017-07-20T03:59:30.007Z,8.87
2017-07-20T04:01:58.297Z,9.70
2017-07-20T04:04:25.842Z,10.10
2017-07-20T04:06:54.129Z,14.07
2017-07-20T04:09:21.686Z,9.60
2017-07-20T04:11:49.223Z,9.07
2017-07-20T04:14:16.773Z,12.97
2017-07-20T04:16:44.904Z,8.70
2017-07-20T04:19:12.699Z,14.87
2017-07-20T04:21:40.224Z,11.80
2017-07-20T04:24:07.777Z,9.63
2017-07-20T04:26:35.297Z,9.77
2017-07-20T04:29:02.842Z,8.03
2017-07-20T04:31:30.370Z,9.17
2017-07-20T04:33:57.922Z,9.87
2017-07-20T04:36:25.446Z,7.50
2017-07-20T04:38:53.763Z,6.40
2017-07-20T04:41:21.286Z,6.03
2017-07-20T04:43:49.603Z,9.13
2017-07-20T04:46:17.135Z,5.07
2017-07-20T04:48:44.681Z,9.60
2017-07-20T04:51:12.211Z,9.40
2017-07-20T04:53:39.763Z,4.57
2017-07-20T04:56:07.279Z,7.13
2017-07-20T04:58:34.809Z,5.67
2017-07-20T05:01:03.126Z,4.40
2017-07-20T05:03:30.654Z,5.60
2017-07-20T05:05:58.969Z,5.70
2017-07-20T05:08:26.491Z,8.00
2017-07-20T05:10:54.809Z,8.23
2017-07-20T05:13:22.338Z,9.60
2017-07-20T05:15:49.890Z,6.00
2017-07-20T05:18:18.182Z,7.17
2017-07-20T05:20:45.727Z,6.63
2017-07-20T05:23:14.019Z,7.23
2017-07-20T05:25:41.566Z,7.33
2017-07-20T05:28:09.855Z,3.77
2017-07-20T05:30:37.402Z,5.43
2017-07-20T05:33:05.693Z,5.20
2017-07-20T05:35:33.242Z,4.60
2017-07-20T05:38:01.531Z,5.30
2017-07-20T05:40:29.074Z,5.33
2017-07-20T05:42:57.367Z,4.87
2017-07-20T05:45:24.914Z,6.73
2017-07-20T05:47:53.201Z,4.97
2017-07-20T05:50:20.750Z,3.80
2017-07-20T05:52:49.036Z,4.60
2017-07-20T05:55:16.586Z,7.23
2017-07-20T05:57:44.114Z,10.10
2017-07-20T06:00:11.659Z,7.07
2017-07-20T06:02:39.207Z,4.77
2017-07-20T06:05:06.730Z,4.50
2017-07-20T06:07:34.274Z,6.00
2017-07-20T06:10:01.806Z,6.47
2017-07-20T06:12:29.354Z,6.17
2017-07-20T06:14:56.870Z,6.83
2017-07-20T06:17:24.419Z,5.50
2017-07-20T06:19:51.939Z,4.90
2017-07-20T06:22:19.481Z,5.90
2017-07-20T06:24:47.002Z,5.80
2017-07-20T06:27:14.546Z,9.13
2017-07-20T06:29:42.838Z,7.93
2017-07-20T06:32:10.386Z,10.37
2017-07-20T06:34:38.683Z,8.83
2017-07-20T06:37:06.233Z,7.17
2017-07-20T06:39:33.762Z,7.07
2017-07-20T06:42:01.310Z,6.00
2017-07-20T06:44:28.827Z,9.00
2017-07-20T06:46:56.394Z,13.43
2017-07-20T06:49:23.934Z,8.20
2017-07-20T06:51:51.482Z,11.77
2017-07-20T06:54:19.006Z,8.07
2017-07-20T06:56:46.559Z,11.17
2017-07-20T06:59:14.078Z,12.30
2017-07-20T07:01:41.639Z,7.60
2017-07-20T07:04:09.164Z,8.93
2017-07-20T07:06:36.687Z,8.40
2017-07-20T07:09:04.234Z,10.07
2017-07-20T07:11:31.758Z,9.93
2017-07-20T07:14:00.075Z,10.07
2017-07-20T07:16:27.602Z,10.67
2017-07-20T07:18:55.914Z,14.17
2017-07-20T07:21:23.447Z,10.03
2017-07-20T07:23:50.991Z,7.37
2017-07-20T07:26:19.282Z,11.10
2017-07-20T07:28:46.830Z,13.67
2017-07-20T07:31:15.128Z,17.80
2017-07-20T07:33:42.678Z,14.27
2017-07-20T07:36:10.208Z,13.47
2017-07-20T07:38:37.754Z,9.10
2017-07-20T07:41:05.286Z,11.83
2017-07-20T07:43:32.833Z,8.97
2017-07-20T07:46:00.355Z,7.43
2017-07-20T07:48:28.671Z,6.80
2017-07-20T07:50:56.198Z,10.17
2017-07-20T07:53:24.511Z,6.53
2017-07-20T07:55:52.042Z,12.80
2017-07-20T07:58:20.365Z,7.33
2017-07-20T08:00:47.888Z,7.83
2017-07-20T08:03:15.450Z,8.67
2017-07-20T08:05:42.989Z,9.77
2017-07-20T08:08:11.287Z,12.50
2017-07-20T08:10:38.855Z,8.20
2017-07-20T08:13:06.377Z,8.50
2017-07-20T08:15:34.691Z,9.40
2017-07-20T08:18:02.218Z,7.50
2017-07-20T08:20:30.532Z,8.53
2017-07-20T08:22:58.066Z,8.50
2017-07-20T08:25:26.382Z,9.40
2017-07-20T08:27:53.918Z,12.00
2017-07-20T08:30:21.475Z,7.47
2017-07-20T08:32:49.002Z,11.10
2017-07-20T08:35:16.546Z,9.30
2017-07-20T08:37:44.070Z,9.77
2017-07-20T08:40:11.619Z,8.37
2017-07-20T08:42:39.151Z,17.90
2017-07-20T08:45:07.472Z,14.63
2017-07-20T08:47:34.991Z,13.17
2017-07-20T08:50:02.542Z,10.27
2017-07-20T08:52:30.835Z,11.43
2017-07-20T08:54:59.146Z,8.87
2017-07-20T08:57:26.665Z,7.40
2017-07-20T08:59:54.982Z,10.77
2017-07-20T09:02:22.507Z,10.77
2017-07-20T09:04:50.074Z,10.63
2017-07-20T09:07:17.598Z,10.47
2017-07-20T09:09:45.129Z,8.10
2017-07-20T09:12:12.695Z,16.33
2017-07-20T09:14:40.218Z,11.00
2017-07-20T09:17:07.765Z,11.20
2017-07-20T09:19:36.053Z,11.93
2017-07-20T09:22:03.602Z,10.33
2017-07-20T09:24:31.886Z,8.27
2017-07-20T09:26:59.443Z,12.17
2017-07-20T09:29:26.968Z,10.70
2017-07-20T09:31:54.514Z,9.23
2017-07-20T09:34:22.048Z,12.43
2017-07-20T09:36:49.608Z,10.23
2017-07-20T09:39:17.126Z,8.87
2017-07-20T09:41:45.446Z,10.30
2017-07-20T09:44:12.971Z,12.00
2017-07-20T09:46:41.285Z,10.00
2017-07-20T09:49:08.810Z,8.00
2017-07-20T09:51:36.366Z,9.03
2017-07-20T09:54:04.664Z,10.80
2017-07-20T09:56:32.221Z,9.40
2017-07-20T09:58:59.754Z,11.70
2017-07-20T10:01:28.070Z,15.63
2017-07-20T10:03:55.595Z,10.37
2017-07-20T10:06:23.915Z,10.30
2017-07-20T10:08:51.439Z,9.20
2017-07-20T10:11:19.729Z,8.60
2017-07-20T10:13:47.285Z,10.07
2017-07-20T10:16:14.810Z,9.63
2017-07-20T10:18:42.349Z,9.40
2017-07-20T10:21:09.870Z,9.10
2017-07-20T10:23:37.419Z,10.53
2017-07-20T10:26:04.955Z,13.17
2017-07-20T10:28:33.271Z,8.17
2017-07-20T10:31:00.794Z,9.67
2017-07-20T10:33:29.106Z,8.00
2017-07-20T10:35:56.627Z,7.20
2017-07-20T10:38:24.170Z,8.20
2017-07-20T10:40:51.686Z,9.60
2017-07-20T10:43:19.242Z,11.33
2017-07-20T10:45:46.763Z,8.47
2017-07-20T10:48:14.314Z,10.10
2017-07-20T10:50:41.845Z,7.80
2017-07-20T10:53:09.392Z,9.67
2017-07-20T10:55:36.915Z,6.27
2017-07-20T10:58:05.224Z,8.73
2017-07-20T11:00:32.750Z,7.50
2017-07-20T11:03:01.061Z,8.90
2017-07-20T11:05:28.589Z,11.00
2017-07-20T11:07:56.927Z,10.77
2017-07-20T11:10:24.454Z,9.40
2017-07-20T11:12:51.978Z,8.67
2017-07-20T11:15:20.289Z,7.87
2017-07-20T11:17:47.814Z,7.80
2017-07-20T11:20:16.126Z,8.53
2017-07-20T11:22:43.654Z,8.43
2017-07-20T11:25:11.968Z,6.80
2017-07-20T11:27:39.487Z,8.93
2017-07-20T11:30:07.804Z,6.43
2017-07-20T11:32:35.330Z,11.20
2017-07-20T11:35:03.646Z,8.13
2017-07-20T11:37:31.169Z,8.53
2017-07-20T11:39:59.486Z,7.13
2017-07-20T11:42:27.022Z,7.87
2017-07-20T11:44:54.575Z,5.70
2017-07-20T11:47:22.098Z,8.13
2017-07-20T11:49:49.654Z,10.80
2017-07-20T11:52:17.171Z,7.63
2017-07-20T11:54:44.720Z,8.53
2017-07-20T11:57:12.246Z,8.07
2017-07-20T11:59:40.567Z,6.87
2017-07-20T12:02:08.095Z,9.17
2017-07-20T12:04:36.413Z,8.07
2017-07-20T12:07:03.954Z,6.37
2017-07-20T12:09:31.501Z,7.60
2017-07-20T12:11:59.026Z,6.63
2017-07-20T12:14:26.587Z,8.73
2017-07-20T12:16:54.110Z,8.63
2017-07-20T12:19:21.634Z,9.83
2017-07-20T12:21:49.950Z,6.30
2017-07-20T12:24:17.479Z,8.00
2017-07-20T12:26:45.022Z,9.63
2017-07-20T12:29:13.313Z,8.90
2017-07-20T12:31:40.868Z,7.10
2017-07-20T12:34:09.159Z,9.97
2017-07-20T12:36:36.706Z,6.87
2017-07-20T12:39:04.252Z,12.90
2017-07-20T12:41:32.577Z,11.43
2017-07-20T12:44:00.110Z,7.47
2017-07-20T12:46:27.659Z,9.43
2017-07-20T12:48:55.941Z,8.43
2017-07-20T12:51:24.263Z,11.70
2017-07-20T12:53:51.786Z,8.67
2017-07-20T12:56:19.339Z,6.70
2017-07-20T12:58:46.865Z,5.70
2017-07-20T13:01:14.409Z,6.00
2017-07-20T13:03:41.934Z,10.23
2017-07-20T13:06:09.487Z,4.93
2017-07-20T13:08:37.034Z,6.37
2017-07-20T13:11:04.584Z,6.00
2017-07-20T13:13:32.111Z,10.07
2017-07-20T13:15:59.630Z,4.07
2017-07-20T13:18:27.175Z,3.60
2017-07-20T13:20:54.699Z,3.57
2017-07-20T13:23:22.247Z,5.47
2017-07-20T13:25:49.775Z,5.10
2017-07-20T13:28:17.321Z,4.30
2017-07-20T13:30:44.915Z,4.00
2017-07-20T13:33:12.463Z,7.40
2017-07-20T13:35:39.995Z,4.30
2017-07-20T13:38:07.542Z,5.93
2017-07-20T13:40:35.840Z,4.50
2017-07-20T13:43:03.391Z,4.57
2017-07-20T13:45:30.918Z,4.67
2017-07-20T13:47:58.477Z,10.80
2017-07-20T13:50:25.995Z,4.43
2017-07-20T13:52:53.543Z,4.03
2017-07-20T13:55:21.067Z,4.10
2017-07-20T13:57:49.389Z,4.90
2017-07-20T14:00:16.910Z,6.73
2017-07-20T14:02:45.218Z,4.77
2017-07-20T14:05:12.735Z,6.27
2017-07-20T14:07:40.279Z,5.00
2017-07-20T14:10:07.798Z,6.47
2017-07-20T14:12:35.343Z,4.90
2017-07-20T14:15:02.879Z,6.93
2017-07-20T14:17:31.170Z,6.90
2017-07-20T14:19:59.479Z,6.53
2017-07-20T14:22:26.999Z,4.43
2017-07-20T14:24:55.314Z,4.97
2017-07-20T14:27:22.831Z,4.57
2017-07-20T14:29:51.142Z,8.50
2017-07-20T14:32:18.674Z,4.33
2017-07-20T14:34:46.225Z,6.80
2017-07-20T14:37:14.521Z,3.80
2017-07-20T14:39:42.070Z,6.43
2017-07-20T14:42:10.359Z,5.10
2017-07-20T14:44:37.907Z,4.57
2017-07-20T14:47:06.194Z,4.03
2017-07-20T14:49:33.757Z,5.37
2017-07-20T14:52:01.281Z,4.90
2017-07-20T14:54:28.823Z,3.50
2017-07-20T14:56:56.337Z,6.67
2017-07-20T14:59:23.894Z,4.83
2017-07-20T15:01:51.422Z,3.80
2017-07-20T15:04:18.980Z,4.40
2017-07-20T15:06:46.502Z,5.93
2017-07-20T15:09:14.041Z,7.27
2017-07-20T15:11:41.561Z,6.40
2017-07-20T15:14:09.107Z,4.30
2017-07-20T15:16:36.658Z,5.77
2017-07-20T15:19:04.222Z,3.67
2017-07-20T15:21:31.748Z,5.60
2017-07-20T15:23:59.275Z,3.90
2017-07-20T15:26:26.829Z,3.90
2017-07-20T15:28:55.118Z,4.63
2017-07-20T15:31:22.671Z,3.40
2017-07-20T15:33:50.961Z,3.70
2017-07-20T15:36:18.511Z,3.80
2017-07-20T15:38:46.797Z,7.33
2017-07-20T15:41:14.355Z,4.10
2017-07-20T15:43:41.878Z,6.87
2017-07-20T15:46:09.421Z,6.27
2017-07-20T15:48:36.946Z,6.20
2017-07-20T15:51:04.490Z,3.77
2017-07-20T15:53:32.014Z,4.67
2017-07-20T15:55:59.563Z,4.60
2017-07-20T15:58:27.099Z,5.43
2017-07-20T16:00:54.641Z,6.20
2017-07-20T16:03:27.926Z,4.63
2017-07-20T16:05:55.474Z,7.50
2017-07-20T16:08:23.765Z,4.80
2017-07-20T16:10:51.310Z,5.03
2017-07-20T16:13:19.602Z,4.73
2017-07-20T16:15:47.146Z,3.97
2017-07-20T16:18:15.437Z,5.13
2017-07-20T16:20:43.013Z,3.83
2017-07-20T16:23:10.530Z,4.63
2017-07-20T16:25:38.054Z,5.27
2017-07-20T16:28:05.603Z,3.87
2017-07-20T16:30:33.126Z,2.70
2017-07-20T16:33:00.679Z,4.00
2017-07-20T16:35:28.974Z,5.10
2017-07-20T16:37:56.528Z,6.63
2017-07-20T16:40:24.063Z,4.40
2017-07-20T16:42:52.385Z,4.17
2017-07-20T16:45:19.923Z,4.90
2017-07-20T16:47:47.470Z,5.47
2017-07-20T16:50:15.763Z,3.53
2017-07-20T16:52:43.322Z,4.40
2017-07-20T16:55:10.855Z,4.90
2017-07-20T16:57:39.171Z,4.43
2017-07-20T17:00:06.705Z,5.80
2017-07-20T17:02:35.015Z,3.00
2017-07-20T17:05:02.539Z,4.07
2017-07-20T17:07:30.849Z,4.50
2017-07-20T17:09:58.371Z,3.80
2017-07-20T17:12:26.692Z,3.37
2017-07-20T17:14:54.231Z,7.27
2017-07-20T17:17:21.783Z,2.90
2017-07-20T17:19:49.320Z,5.17
2017-07-20T17:22:17.637Z,5.73
2017-07-20T17:24:45.159Z,3.73
2017-07-20T17:27:13.499Z,9.40
2017-07-20T17:29:41.026Z,5.17
2017-07-20T17:32:08.550Z,5.83
2017-07-20T17:34:36.098Z,5.30
2017-07-20T17:37:03.622Z,4.70
2017-07-20T17:39:31.172Z,5.23
2017-07-20T17:41:58.702Z,3.77
2017-07-20T17:44:27.027Z,6.47
2017-07-20T17:46:54.555Z,5.77
2017-07-20T17:49:22.114Z,6.67
2017-07-20T17:51:49.634Z,3.90
2017-07-20T17:54:17.178Z,6.80
2017-07-20T17:56:44.707Z,4.07
2017-07-20T17:59:12.253Z,3.40
2017-07-20T18:01:39.782Z,8.50
2017-07-20T18:04:07.359Z,3.63
2017-07-20T18:06:35.646Z,5.33
2017-07-20T18:09:03.207Z,7.03
2017-07-20T18:11:30.747Z,5.80
2017-07-20T18:13:59.075Z,5.80
2017-07-20T18:16:26.611Z,5.50
2017-07-20T18:18:54.171Z,3.87
2017-07-20T18:21:21.704Z,5.30
2017-07-20T18:23:50.025Z,7.80
2017-07-20T18:26:17.561Z,4.37
2017-07-20T18:28:45.121Z,9.17
2017-07-20T18:31:12.651Z,3.67
2017-07-20T18:33:40.991Z,3.27
2017-07-20T18:36:08.522Z,7.40
2017-07-20T18:38:36.086Z,4.27
2017-07-20T18:41:03.624Z,4.20
2017-07-20T18:43:31.970Z,7.50
2017-07-20T18:45:59.939Z,4.10
2017-07-20T18:48:27.527Z,4.47
2017-07-20T18:50:55.083Z,5.50
2017-07-20T18:53:23.377Z,5.40
2017-07-20T18:55:50.918Z,5.33
2017-07-20T18:58:18.439Z,5.17
2017-07-20T19:00:45.991Z,5.70
2017-07-20T19:03:13.519Z,3.90
2017-07-20T19:05:41.063Z,4.77
2017-07-20T19:08:09.350Z,4.00
2017-07-20T19:10:36.903Z,5.03
2017-07-20T19:13:05.191Z,3.93
2017-07-20T19:15:32.739Z,4.10
2017-07-20T19:18:01.027Z,3.20
2017-07-20T19:20:28.577Z,4.70
2017-07-20T19:22:56.870Z,3.67
2017-07-20T19:25:24.414Z,2.80
2017-07-20T19:27:52.698Z,3.43
2017-07-20T19:30:20.243Z,4.67
2017-07-20T19:32:48.535Z,2.37
2017-07-20T19:35:16.081Z,4.77
2017-07-20T19:37:44.378Z,7.07
2017-07-20T19:40:11.931Z,3.73
2017-07-20T19:42:39.494Z,5.07
2017-07-20T19:45:07.054Z,4.10
2017-07-20T19:47:34.591Z,3.67
2017-07-20T19:50:02.911Z,3.00
2017-07-20T19:52:30.438Z,3.30
2017-07-20T19:54:58.762Z,3.07
2017-07-20T19:57:26.287Z,2.37
2017-07-20T19:59:53.846Z,2.90
2017-07-20T20:02:21.725Z,4.60
2017-07-20T20:04:50.112Z,2.93
2017-07-20T20:07:18.705Z,4.30
2017-07-20T20:09:47.082Z,4.30
2017-07-20T20:12:14.610Z,5.90
2017-07-20T20:14:42.150Z,4.90
2017-07-20T20:17:10.446Z,3.33
2017-07-20T20:19:38.014Z,2.57
2017-07-20T20:22:05.547Z,3.20
2017-07-20T20:24:33.851Z,7.70
2017-07-20T20:27:01.438Z,4.20
2017-07-20T20:29:28.958Z,4.00
2017-07-20T20:31:57.275Z,3.97
2017-07-20T20:34:24.812Z,4.83
2017-07-20T20:36:52.358Z,4.50
2017-07-20T20:39:20.634Z,5.53
2017-07-20T20:41:48.291Z,7.13
2017-07-20T20:44:15.836Z,6.50
2017-07-20T20:46:44.161Z,4.37
2017-07-20T20:49:11.695Z,7.10
2017-07-20T20:51:40.006Z,4.20
2017-07-20T20:54:07.530Z,3.43
2017-07-20T20:56:35.848Z,4.10
2017-07-20T20:59:03.370Z,3.60
2017-07-20T21:01:30.902Z,3.70
2017-07-20T21:03:58.457Z,6.90
2017-07-20T21:06:25.974Z,3.40
2017-07-20T21:08:53.519Z,5.40
2017-07-20T21:11:21.043Z,3.00
2017-07-20T21:13:48.607Z,3.30
2017-07-20T21:16:16.900Z,3.23
2017-07-20T21:18:45.213Z,2.97
2017-07-20T21:21:12.743Z,3.07
2017-07-20T21:23:40.291Z,4.10
2017-07-20T21:26:08.583Z,4.20
2017-07-20T21:28:36.126Z,4.03
2017-07-20T21:31:04.421Z,3.90
2017-07-20T21:33:31.972Z,4.00
2017-07-20T21:35:59.490Z,5.17
2017-07-20T21:38:27.033Z,5.07
2017-07-20T21:40:54.553Z,4.73
2017-07-20T21:43:22.099Z,4.50
2017-07-20T21:45:50.385Z,2.83
2017-07-20T21:48:17.939Z,3.50
2017-07-20T21:50:45.488Z,3.10
2017-07-20T21:53:13.808Z,5.20
2017-07-20T21:55:41.331Z,3.00
2017-07-20T21:58:09.663Z,3.03
2017-07-20T22:00:37.190Z,2.80
2017-07-20T22:03:04.715Z,3.73
2017-07-20T22:05:32.258Z,2.80
2017-07-20T22:07:59.787Z,6.00
2017-07-20T22:10:27.335Z,2.77
2017-07-20T22:12:54.868Z,5.43
2017-07-20T22:15:23.186Z,4.00
2017-07-20T22:17:50.715Z,3.70
2017-07-20T22:20:18.471Z,4.60
2017-07-20T22:22:46.767Z,4.17
2017-07-20T22:25:14.322Z,6.83
2017-07-20T22:27:41.851Z,3.30
2017-07-20T22:51:14.421Z,4.70
2017-07-20T22:53:41.942Z,6.90
2017-07-20T22:56:10.256Z,4.87
2017-07-20T22:58:37.775Z,3.93
2017-07-20T23:01:06.088Z,6.40
2017-07-20T23:03:33.611Z,5.87
2017-07-20T23:06:01.914Z,4.23
2017-07-20T23:08:29.449Z,4.00
2017-07-20T23:10:57.757Z,7.40
2017-07-20T23:13:25.273Z,3.20
2017-07-20T23:15:52.819Z,7.70
2017-07-20T23:18:20.338Z,3.80
2017-07-20T23:20:47.890Z,8.73
2017-07-20T23:23:15.411Z,7.17
2017-07-20T23:25:42.934Z,4.53
2017-07-20T23:28:10.474Z,4.43
2017-07-20T23:30:37.996Z,7.67
2017-07-20T23:33:06.312Z,6.97
2017-07-20T23:35:33.833Z,7.00
2017-07-20T23:38:02.149Z,4.63
2017-07-20T23:40:29.666Z,4.90
2017-07-20T23:42:57.207Z,6.97
2017-07-20T23:45:24.732Z,3.90
2017-07-20T23:47:52.269Z,3.00
2017-07-20T23:50:19.794Z,3.57
2017-07-20T23:52:47.330Z,4.17
2017-07-20T23:55:14.846Z,3.77
2017-07-20T23:57:42.402Z,4.27
